createdAt,value
2022-10-27T00:03:54.002Z,12.4
2022-10-27T00:18:34.724Z,12.5
2022-10-27T00:33:10.842Z,11.9
2022-10-27T00:47:47.224Z,12.1
2022-10-27T01:02:18.213Z,11.6
2022-10-27T01:16:52.743Z,11.9
2022-10-27T01:31:26.169Z,11.3
2022-10-27T01:46:00.763Z,11.5
2022-10-27T02:00:33.006Z,11.6
2022-10-27T02:15:08.237Z,11.6
2022-10-27T02:29:48.122Z,11.9
2022-10-27T02:44:25.746Z,11.6
2022-10-27T02:58:54.757Z,11.4
2022-10-27T03:13:29.393Z,11.2
2022-10-27T03:28:02.582Z,11
2022-10-27T03:42:35.486Z,10.6
2022-10-27T03:57:14.801Z,10.9
2022-10-27T04:11:52.245Z,11
2022-10-27T04:26:23.374Z,10.9
2022-10-27T04:41:04.793Z,11
2022-10-27T04:55:42.168Z,11.3
2022-10-27T05:10:12.761Z,11.5
2022-10-27T05:24:47.316Z,11.3
2022-10-27T05:39:27.580Z,11.3
2022-10-27T05:54:06.570Z,11.8
2022-10-27T06:08:42.496Z,10.9
2022-10-27T06:23:18.578Z,11.4
2022-10-27T06:37:50.826Z,11.4
2022-10-27T06:52:30.864Z,11.9
2022-10-27T07:07:10.612Z,12.4
2022-10-27T07:21:42.095Z,12.4
2022-10-27T07:36:16.550Z,12.7
2022-10-27T07:50:51.504Z,12.9
2022-10-27T08:05:28.402Z,13.6
2022-10-27T08:20:03.164Z,14
2022-10-27T08:34:38.422Z,14.5
2022-10-27T08:49:15.637Z,15.9
2022-10-27T09:03:53.548Z,16.9
2022-10-27T09:18:39.198Z,19.2
2022-10-27T09:33:17.481Z,19.5
2022-10-27T09:47:46.114Z,18.9
2022-10-27T10:02:19.987Z,19
2022-10-27T10:16:55.061Z,19.1
2022-10-27T10:31:31.006Z,19.5
2022-10-27T10:46:04.828Z,19.7
2022-10-27T11:00:39.380Z,20
2022-10-27T11:15:15.196Z,20.4
2022-10-27T11:29:52.058Z,20.6
2022-10-27T11:44:28.614Z,20.7
2022-10-27T11:59:03.044Z,20.8
2022-10-27T12:13:38.465Z,21
2022-10-27T12:42:47.952Z,21.1
2022-10-27T12:57:23.455Z,21.2
2022-10-27T13:12:03.752Z,21.3
2022-10-27T13:26:33.988Z,21
2022-10-27T13:41:14.717Z,21.1
2022-10-27T13:55:45.809Z,21.1
2022-10-27T14:10:21.076Z,21
2022-10-27T14:24:52.282Z,21
2022-10-27T14:39:26.447Z,21
2022-10-27T14:54:00.572Z,20.8
2022-10-27T15:08:34.704Z,20.5
2022-10-27T15:23:07.246Z,20.2
2022-10-27T15:37:40.917Z,20
2022-10-27T15:52:15.389Z,19.7
2022-10-27T16:06:49.808Z,19.8
2022-10-27T16:21:23.540Z,19.3
2022-10-27T16:35:57.087Z,19.1
2022-10-27T16:50:32.126Z,19.1
2022-10-27T17:05:06.076Z,19
2022-10-27T17:19:42.321Z,19.2
2022-10-27T17:34:17.229Z,19.2
2022-10-27T17:48:51.917Z,19.3
2022-10-27T18:03:24.833Z,19.2
2022-10-27T18:18:00.769Z,19.2
2022-10-27T18:32:34.008Z,19
2022-10-27T18:47:06.329Z,19.1
2022-10-27T19:01:39.507Z,18.4
2022-10-27T19:16:14.586Z,18.5
2022-10-27T19:30:48.194Z,18.4
2022-10-27T19:45:27.467Z,17.9
2022-10-27T20:00:05.396Z,17.6
2022-10-27T20:14:33.516Z,17.6
2022-10-27T20:29:08.055Z,17.4
2022-10-27T20:43:42.163Z,17.3
2022-10-27T20:58:16.092Z,17.1
2022-10-27T21:12:48.671Z,17
2022-10-27T21:27:23.022Z,17
2022-10-27T21:41:56.880Z,17
2022-10-27T21:56:32.196Z,16.8
2022-10-27T22:11:13.391Z,16.9
2022-10-27T22:25:49.882Z,17.2
2022-10-27T22:40:20.566Z,17.1
2022-10-27T22:54:54.136Z,16.9
2022-10-27T23:09:27.532Z,17
2022-10-27T23:24:01.740Z,17.1
2022-10-27T23:38:36.862Z,17
2022-10-27T23:53:11.385Z,17
